Time;durP1;ratioP1;P1;durP2;ratioP2;P2;SDS_P1;SDS_P2;PMS_P1;PMS_P2;Temp;Humidity;BMP_temperature;BMP_pressure;BME280_temperature;BME280_humidity;BME280_pressure;Samples;Min_cycle;Max_cycle;Signal;HPM_P1;HPM_P2
2021/07/20 00:00:12;;;;;;;8.80;4.47;;;16.40;99.90;;;;;;5010128;28;20457;-72
2021/07/20 00:02:42;;;;;;;7.03;4.20;;;16.60;99.90;;;;;;5026780;28;20436;-72
2021/07/20 00:05:13;;;;;;;5.40;3.87;;;16.60;99.90;;;;;;5010487;28;20955;-72
2021/07/20 00:07:44;;;;;;;7.83;5.83;;;16.60;99.90;;;;;;5010421;28;20495;-71
2021/07/20 00:10:15;;;;;;;5.53;4.37;;;16.40;99.90;;;;;;5010419;28;20428;-72
2021/07/20 00:12:44;;;;;;;6.47;4.47;;;16.60;99.90;;;;;;5011202;28;20489;-72
2021/07/20 00:15:14;;;;;;;5.60;4.60;;;16.60;99.90;;;;;;4994247;28;20441;-73
2021/07/20 00:17:44;;;;;;;6.00;4.17;;;16.50;99.90;;;;;;4994440;28;20416;-73
2021/07/20 00:20:15;;;;;;;5.17;4.43;;;16.70;99.90;;;;;;4994360;28;20434;-73
2021/07/20 00:22:45;;;;;;;8.20;5.50;;;16.70;99.90;;;;;;5010755;28;20425;-73
2021/07/20 00:25:14;;;;;;;9.63;5.20;;;16.70;99.90;;;;;;4993628;28;20497;-72
2021/07/20 00:27:42;;;;;;;5.23;4.73;;;17.00;99.90;;;;;;5026294;28;20527;-72
2021/07/20 00:30:13;;;;;;;5.90;5.30;;;17.50;99.90;;;;;;5009891;28;20605;-72
2021/07/20 00:32:43;;;;;;;11.30;6.80;;;17.60;99.90;;;;;;4992803;28;20838;-73
2021/07/20 00:35:13;;;;;;;7.43;4.90;;;17.60;99.90;;;;;;5009498;28;20419;-72
2021/07/20 00:37:42;;;;;;;8.10;6.40;;;17.60;99.90;;;;;;5025556;28;20503;-72
2021/07/20 00:40:15;;;;;;;7.33;4.60;;;17.70;99.90;;;;;;5009531;28;20521;-72
2021/07/20 00:42:44;;;;;;;6.63;5.47;;;17.60;99.90;;;;;;5025916;28;20446;-73
2021/07/20 00:45:14;;;;;;;9.53;5.10;;;17.60;99.90;;;;;;5009261;28;20511;-73
2021/07/20 00:47:44;;;;;;;7.43;4.27;;;17.60;99.90;;;;;;4993165;28;20569;-72
2021/07/20 00:50:17;;;;;;;5.03;4.40;;;17.50;99.90;;;;;;5009020;28;20441;-72
2021/07/20 00:52:46;;;;;;;4.53;3.97;;;17.50;99.90;;;;;;5012845;28;21053;-72
2021/07/20 00:55:18;;;;;;;5.90;4.13;;;17.60;99.90;;;;;;4996177;28;20874;-73
2021/07/20 00:57:47;;;;;;;5.60;4.40;;;17.70;99.90;;;;;;5028880;28;20834;-73
2021/07/20 01:00:20;;;;;;;7.63;4.73;;;17.80;99.90;;;;;;5012510;28;20558;-73
2021/07/20 01:02:52;;;;;;;4.93;4.43;;;18.00;99.90;;;;;;5012277;28;20473;-71
2021/07/20 01:05:23;;;;;;;7.20;4.47;;;18.10;99.90;;;;;;4996566;28;20478;-72
2021/07/20 01:07:53;;;;;;;8.00;4.63;;;18.10;99.90;;;;;;5028749;28;20447;-72
2021/07/20 01:10:24;;;;;;;5.53;4.37;;;18.30;99.90;;;;;;5012450;28;20462;-72
2021/07/20 01:12:55;;;;;;;5.53;4.60;;;18.30;99.90;;;;;;5028939;28;20476;-72
2021/07/20 01:15:23;;;;;;;8.43;4.13;;;18.20;99.90;;;;;;5013470;28;20395;-72
2021/07/20 01:17:55;;;;;;;4.40;3.67;;;18.20;99.90;;;;;;5012119;28;20427;-73
2021/07/20 01:20:28;;;;;;;10.17;5.53;;;18.20;99.90;;;;;;5012491;28;20821;-73
2021/07/20 01:23:01;;;;;;;9.50;6.97;;;18.10;99.90;;;;;;5012470;28;20420;-71
2021/07/20 01:25:31;;;;;;;9.13;6.17;;;18.00;99.90;;;;;;5012182;28;20429;-71
2021/07/20 01:28:03;;;;;;;6.33;3.70;;;18.20;99.90;;;;;;5012490;28;20892;-72
2021/07/20 01:30:34;;;;;;;5.33;4.20;;;18.40;99.90;;;;;;5012148;28;20452;-72
2021/07/20 01:33:04;;;;;;;7.00;5.40;;;18.50;99.90;;;;;;5012241;28;20476;-72
2021/07/20 01:35:35;;;;;;;4.93;4.10;;;18.40;99.90;;;;;;5012515;28;20419;-72
2021/07/20 01:38:08;;;;;;;7.90;5.60;;;18.30;99.90;;;;;;5012455;28;20949;-72
2021/07/20 01:40:41;;;;;;;5.47;4.27;;;18.20;99.90;;;;;;5028590;28;20463;-73
2021/07/20 01:43:11;;;;;;;8.03;4.60;;;18.20;99.90;;;;;;4996470;28;20445;-72
2021/07/20 01:45:45;;;;;;;4.80;3.50;;;18.20;99.90;;;;;;5012158;28;20408;-72
2021/07/20 01:48:14;;;;;;;4.80;3.60;;;18.10;99.90;;;;;;5012366;28;20454;-72
2021/07/20 01:50:44;;;;;;;8.73;5.37;;;18.10;99.90;;;;;;4995663;28;20439;-72
2021/07/20 01:53:14;;;;;;;5.20;4.70;;;18.10;99.90;;;;;;5028967;28;20957;-72
2021/07/20 01:55:44;;;;;;;6.70;5.03;;;18.20;99.90;;;;;;5012573;28;20882;-72
2021/07/20 01:58:13;;;;;;;5.67;4.37;;;18.30;99.90;;;;;;5013065;28;20500;-73
2021/07/20 02:01:09;;;;;;;5.17;4.10;;;18.40;99.90;;;;;;4997428;28;20481;-73
2021/07/20 02:04:02;;;;;;;7.63;3.37;;;18.20;99.90;;;;;;5028416;28;20440;-71
2021/07/20 02:09:29;;;;;;;8.27;4.30;;;18.00;99.90;;;;;;5044999;28;21000;-72
2021/07/20 02:12:10;;;;;;;4.83;2.87;;;17.70;99.90;;;;;;5028687;28;20452;-72
2021/07/20 02:14:59;;;;;;;5.70;4.07;;;17.40;99.90;;;;;;5012623;28;20458;-72
2021/07/20 02:17:55;;;;;;;5.40;3.93;;;17.30;99.90;;;;;;5005272;28;20428;-72
2021/07/20 02:20:27;;;;;;;4.87;4.03;;;17.10;99.90;;;;;;5028991;28;20528;-71
2021/07/20 02:23:00;;;;;;;5.20;4.00;;;16.80;99.90;;;;;;5045280;28;20491;-72
2021/07/20 02:25:31;;;;;;;6.00;4.00;;;16.70;99.90;;;;;;5011607;28;20419;-72
2021/07/20 02:28:15;;;;;;;9.30;3.40;;;16.60;99.90;;;;;;5027907;28;20477;-71
2021/07/20 02:30:45;;;;;;;4.23;3.47;;;16.50;99.90;;;;;;5011789;28;20494;-73
2021/07/20 02:33:15;;;;;;;4.77;3.57;;;16.40;99.90;;;;;;5011586;28;20435;-72
2021/07/20 02:35:44;;;;;;;4.87;3.43;;;16.40;99.90;;;;;;5012652;28;20415;-72
2021/07/20 02:38:41;;;;;;;4.77;3.80;;;16.40;99.90;;;;;;5039225;28;20437;-72
2021/07/20 02:41:15;;;;;;;4.00;3.30;;;16.30;99.90;;;;;;5011516;28;20794;-73
2021/07/20 02:43:50;;;;;;;4.57;3.93;;;16.30;99.90;;;;;;5027848;28;20412;-72
2021/07/20 02:46:19;;;;;;;4.37;3.20;;;16.20;99.90;;;;;;5009862;28;20415;-72
2021/07/20 02:48:51;;;;;;;4.70;3.37;;;16.20;99.90;;;;;;5026995;28;20959;-72
2021/07/20 02:51:25;;;;;;;3.83;3.40;;;16.20;99.90;;;;;;4994452;28;20514;-72
2021/07/20 02:53:58;;;;;;;3.97;3.57;;;16.20;99.90;;;;;;5010634;28;20480;-72
2021/07/20 02:56:27;;;;;;;3.70;3.30;;;16.20;99.90;;;;;;5026224;28;20515;-72
2021/07/20 02:59:02;;;;;;;4.17;3.27;;;16.20;99.90;;;;;;4994435;28;20474;-72
2021/07/20 03:01:46;;;;;;;3.90;2.87;;;16.30;99.90;;;;;;4994222;28;20484;-72
2021/07/20 03:04:16;;;;;;;4.20;2.73;;;16.30;99.90;;;;;;5011153;28;20647;-72
2021/07/20 03:06:52;;;;;;;3.07;2.73;;;16.30;99.90;;;;;;5010646;28;20468;-72
2021/07/20 03:09:24;;;;;;;5.23;3.73;;;16.30;99.90;;;;;;4994525;28;20860;-72
2021/07/20 03:11:58;;;;;;;4.70;3.63;;;16.30;99.90;;;;;;5011652;28;20476;-72
2021/07/20 03:14:30;;;;;;;4.93;3.27;;;16.20;99.90;;;;;;5010874;28;20476;-72
2021/07/20 03:17:13;;;;;;;5.17;3.70;;;16.20;99.90;;;;;;5010711;28;20503;-72
2021/07/20 03:19:45;;;;;;;3.50;2.93;;;16.20;99.90;;;;;;5027106;28;21006;-72
2021/07/20 03:22:23;;;;;;;5.60;2.90;;;16.30;99.90;;;;;;5010470;28;20849;-72
2021/07/20 03:24:57;;;;;;;5.10;3.30;;;16.20;99.90;;;;;;5010290;28;20459;-72
2021/07/20 03:27:31;;;;;;;4.23;3.37;;;16.40;99.90;;;;;;5010262;28;20448;-72
2021/07/20 03:30:07;;;;;;;4.17;3.73;;;16.30;99.90;;;;;;5010036;28;20443;-72
2021/07/20 03:32:37;;;;;;;6.00;3.50;;;16.30;99.90;;;;;;5009999;28;20427;-72
2021/07/20 03:35:08;;;;;;;3.83;3.13;;;16.20;99.90;;;;;;4993870;28;20470;-72
2021/07/20 03:37:38;;;;;;;5.43;3.50;;;16.20;99.90;;;;;;5010014;28;20430;-72
2021/07/20 03:40:08;;;;;;;3.50;3.20;;;16.20;99.90;;;;;;5011135;28;20665;-72
2021/07/20 03:42:38;;;;;;;4.13;2.70;;;16.10;99.90;;;;;;5010150;28;20528;-72
2021/07/20 03:45:10;;;;;;;4.20;2.70;;;16.10;99.90;;;;;;5010310;28;20948;-72
2021/07/20 03:47:43;;;;;;;5.50;3.63;;;16.10;99.90;;;;;;5026414;28;20433;-73
2021/07/20 03:50:26;;;;;;;3.83;3.10;;;16.10;99.90;;;;;;4993607;28;20448;-73
2021/07/20 03:52:55;;;;;;;3.73;3.20;;;16.10;99.90;;;;;;5010085;28;20451;-72
2021/07/20 03:55:24;;;;;;;3.77;3.43;;;16.10;99.90;;;;;;4993247;28;20465;-71
2021/07/20 03:57:54;;;;;;;4.30;3.90;;;16.10;99.90;;;;;;5009948;28;20556;-72
2021/07/20 04:00:26;;;;;;;5.53;4.00;;;16.50;99.90;;;;;;5010342;28;20465;-73
2021/07/20 04:06:22;;;;;;;4.53;2.67;;;16.70;99.90;;;;;;5003223;28;20445;-72
2021/07/20 04:09:11;;;;;;;5.20;2.80;;;16.80;99.90;;;;;;5011840;28;20424;-71
2021/07/20 04:11:58;;;;;;;4.97;3.27;;;16.80;99.90;;;;;;5012150;28;20490;-74
2021/07/20 04:14:47;;;;;;;5.83;3.80;;;16.60;99.90;;;;;;5011713;28;20512;-71
2021/07/20 04:17:18;;;;;;;3.87;3.00;;;16.60;99.90;;;;;;4993681;28;20433;-72
2021/07/20 04:19:47;;;;;;;4.20;3.23;;;16.40;99.90;;;;;;5009505;28;20451;-72
2021/07/20 04:22:18;;;;;;;4.33;3.40;;;16.40;99.90;;;;;;4993407;28;20437;-72
2021/07/20 04:24:48;;;;;;;3.30;3.00;;;16.40;99.90;;;;;;5025824;28;20441;-72
2021/07/20 04:27:19;;;;;;;5.70;3.90;;;16.30;99.90;;;;;;5013684;28;20860;-72
2021/07/20 04:29:47;;;;;;;5.40;4.43;;;16.30;99.90;;;;;;5014773;28;20799;-72
2021/07/20 04:32:20;;;;;;;4.97;3.87;;;16.40;99.90;;;;;;5033385;23;20591;-69
2021/07/20 04:34:51;;;;;;;4.53;3.33;;;16.30;99.90;;;;;;5084720;28;20779;-69
2021/07/20 04:37:24;;;;;;;4.97;3.97;;;16.40;99.90;;;;;;5075893;28;20412;-69
2021/07/20 04:39:57;;;;;;;5.67;4.23;;;16.50;99.90;;;;;;5071947;28;20512;-69
2021/07/20 04:42:29;;;;;;;6.60;3.40;;;16.80;99.90;;;;;;5073086;28;20430;-69
2021/07/20 04:44:57;;;;;;;4.93;2.80;;;17.00;99.90;;;;;;5072833;28;20422;-69
2021/07/20 04:47:36;;;;;;;5.27;4.20;;;17.20;99.90;;;;;;5072897;28;20416;-69
2021/07/20 04:50:19;;;;;;;5.30;3.70;;;17.50;99.90;;;;;;5056130;28;20955;-70
2021/07/20 04:52:49;;;;;;;5.27;3.50;;;17.50;99.90;;;;;;5072956;28;20442;-69
2021/07/20 04:55:18;;;;;;;3.97;3.30;;;17.20;99.90;;;;;;5073126;28;20462;-69
2021/07/20 04:57:50;;;;;;;4.03;3.53;;;17.10;99.90;;;;;;5073143;28;20453;-69
2021/07/20 05:00:19;;;;;;;7.00;3.73;;;17.00;99.90;;;;;;5072379;28;20462;-69
2021/07/20 05:02:50;;;;;;;3.80;3.40;;;17.00;99.90;;;;;;5055958;28;20438;-69
2021/07/20 05:05:22;;;;;;;4.40;3.67;;;17.20;99.90;;;;;;5072571;28;20946;-69
2021/07/20 05:07:57;;;;;;;4.53;3.80;;;17.40;99.90;;;;;;5072481;28;20412;-70
2021/07/20 05:10:27;;;;;;;6.23;3.90;;;17.40;99.90;;;;;;5072417;28;20456;-69
2021/07/20 05:13:16;;;;;;;14.10;4.17;;;17.30;99.90;;;;;;5072614;28;20420;-69
2021/07/20 05:15:47;;;;;;;5.43;3.30;;;17.60;99.90;;;;;;5055697;28;20441;-69
2021/07/20 05:18:18;;;;;;;6.17;4.00;;;17.60;99.90;;;;;;5056564;28;20473;-70
2021/07/20 05:20:50;;;;;;;4.23;3.73;;;17.70;99.90;;;;;;5073069;28;20493;-69
2021/07/20 05:23:21;;;;;;;4.83;4.33;;;17.90;99.90;;;;;;5056348;28;20449;-70
2021/07/20 05:25:56;;;;;;;7.13;3.30;;;17.90;99.90;;;;;;5073215;28;20424;-69
2021/07/20 05:28:27;;;;;;;7.40;3.87;;;18.00;99.90;;;;;;5055799;28;20456;-69
2021/07/20 05:30:57;;;;;;;4.20;3.80;;;17.90;99.90;;;;;;5071965;28;20832;-69
2021/07/20 05:33:28;;;;;;;5.07;3.60;;;17.90;99.90;;;;;;5072121;28;20966;-69
2021/07/20 05:36:05;;;;;;;4.60;3.20;;;18.20;99.90;;;;;;5073348;28;20491;-69
2021/07/20 05:38:35;;;;;;;4.73;3.27;;;18.40;99.90;;;;;;5054182;28;20424;-69
2021/07/20 05:41:26;;;;;;;4.30;3.20;;;18.50;99.90;;;;;;5073298;28;20458;-69
2021/07/20 05:43:56;;;;;;;4.23;3.20;;;18.50;99.90;;;;;;5072452;28;20851;-69
2021/07/20 05:46:30;;;;;;;5.87;3.60;;;18.60;99.90;;;;;;5055076;28;20430;-69
2021/07/20 05:49:00;;;;;;;5.50;3.60;;;18.70;99.90;;;;;;5072120;28;20899;-69
2021/07/20 05:51:33;;;;;;;9.83;4.40;;;18.60;99.90;;;;;;5054894;28;20845;-68
2021/07/20 05:54:10;;;;;;;6.17;3.30;;;18.70;99.90;;;;;;5072069;28;20521;-68
2021/07/20 05:56:59;;;;;;;4.47;4.07;;;18.90;99.90;;;;;;5072748;28;20472;-69
2021/07/20 05:59:43;;;;;;;4.10;2.93;;;18.60;99.90;;;;;;5071537;28;20488;-69
2021/07/20 06:02:20;;;;;;;4.53;3.10;;;18.70;99.90;;;;;;5071310;28;20413;-70
2021/07/20 06:04:52;;;;;;;4.20;3.10;;;18.90;99.90;;;;;;5070460;28;20447;-69
2021/07/20 06:07:23;;;;;;;5.17;3.90;;;19.10;99.90;;;;;;5063145;28;20450;-70
2021/07/20 06:09:51;;;;;;;3.60;3.27;;;19.10;99.90;;;;;;5051679;28;20477;-69
2021/07/20 06:12:21;;;;;;;6.90;3.30;;;19.10;99.90;;;;;;5035374;28;20429;-69
2021/07/20 06:14:50;;;;;;;5.43;3.60;;;19.30;99.90;;;;;;5052253;28;20834;-69
2021/07/20 06:17:21;;;;;;;5.80;3.30;;;19.40;99.90;;;;;;5034924;28;20871;-69
2021/07/20 06:19:52;;;;;;;4.47;3.33;;;19.60;99.90;;;;;;5051021;28;20471;-69
2021/07/20 06:22:24;;;;;;;5.60;3.40;;;19.60;99.90;;;;;;5050864;28;20470;-69
2021/07/20 06:25:00;;;;;;;4.27;3.10;;;19.30;99.90;;;;;;5051033;28;20448;-69
2021/07/20 06:27:30;;;;;;;5.63;3.20;;;19.30;99.90;;;;;;5051075;28;20414;-69
2021/07/20 06:30:01;;;;;;;5.50;3.23;;;19.40;99.90;;;;;;5052285;28;20418;-72
2021/07/20 06:32:32;;;;;;;3.43;3.13;;;19.50;99.90;;;;;;5050718;28;20575;-69
2021/07/20 06:35:03;;;;;;;5.83;3.70;;;19.60;99.90;;;;;;5044852;28;20774;-69
2021/07/20 06:37:31;;;;;;;4.87;2.70;;;19.90;99.90;;;;;;5052830;28;20783;-69
2021/07/20 06:40:03;;;;;;;3.03;2.63;;;19.90;99.90;;;;;;5053826;28;20929;-69
2021/07/20 06:42:32;;;;;;;3.93;3.20;;;19.80;99.90;;;;;;5059397;28;20495;-69
2021/07/20 06:45:01;;;;;;;5.37;2.90;;;20.00;99.90;;;;;;5063805;28;20417;-69
2021/07/20 06:47:34;;;;;;;3.30;2.57;;;20.00;99.90;;;;;;5070685;28;20455;-69
2021/07/20 06:50:06;;;;;;;5.47;3.40;;;20.00;99.90;;;;;;5060231;28;21051;-69
2021/07/20 06:52:34;;;;;;;5.20;3.77;;;20.20;99.90;;;;;;5050353;28;20418;-70
2021/07/20 06:55:04;;;;;;;9.53;3.50;;;20.30;99.90;;;;;;5053199;28;20467;-70
2021/07/20 06:57:33;;;;;;;5.90;3.17;;;20.50;99.90;;;;;;5070468;28;20857;-69
2021/07/20 07:00:04;;;;;;;3.87;3.23;;;20.20;99.90;;;;;;5051916;28;21022;-70
2021/07/20 07:02:34;;;;;;;6.13;3.20;;;20.20;99.90;;;;;;5070656;28;20822;-70
2021/07/20 07:05:09;;;;;;;4.07;2.90;;;20.40;99.90;;;;;;5051417;28;20759;-69
2021/07/20 07:07:38;;;;;;;4.27;3.10;;;20.50;99.90;;;;;;5050793;28;20406;-69
2021/07/20 07:10:10;;;;;;;3.70;3.40;;;20.50;99.90;;;;;;5051308;28;20839;-69
2021/07/20 07:12:39;;;;;;;4.43;3.10;;;20.50;99.90;;;;;;5051734;28;20898;-71
2021/07/20 07:15:09;;;;;;;3.10;2.57;;;20.20;99.90;;;;;;5034203;28;20562;-69
2021/07/20 07:17:38;;;;;;;4.80;3.33;;;20.10;99.90;;;;;;5068813;28;21167;-69
2021/07/20 07:20:20;;;;;;;6.10;2.70;;;19.90;99.90;;;;;;5070073;28;20436;-70
2021/07/20 07:22:51;;;;;;;6.10;2.73;;;19.80;99.90;;;;;;5054255;28;20961;-70
2021/07/20 07:25:20;;;;;;;3.87;2.50;;;19.80;99.90;;;;;;5066626;28;20415;-70
2021/07/20 07:27:50;;;;;;;3.27;2.93;;;19.90;99.90;;;;;;5051796;28;20774;-70
2021/07/20 07:30:19;;;;;;;5.90;2.17;;;20.10;99.90;;;;;;5070214;28;20792;-71
2021/07/20 07:32:49;;;;;;;4.67;3.03;;;20.10;99.90;;;;;;5069368;28;20520;-70
2021/07/20 07:35:19;;;;;;;3.63;2.70;;;20.20;99.90;;;;;;5071298;28;20423;-70
2021/07/20 07:37:51;;;;;;;2.83;2.53;;;20.40;99.90;;;;;;5070466;28;20493;-70
2021/07/20 07:40:21;;;;;;;4.83;3.37;;;20.70;99.90;;;;;;5069382;28;20464;-69
2021/07/20 07:42:49;;;;;;;3.10;2.80;;;20.70;99.90;;;;;;5070790;28;20446;-70
2021/07/20 07:45:19;;;;;;;5.23;3.80;;;20.40;99.90;;;;;;5061055;28;20408;-70
2021/07/20 07:47:48;;;;;;;2.80;2.40;;;20.20;99.90;;;;;;5085522;28;20420;-70
2021/07/20 07:50:18;;;;;;;3.20;2.20;;;20.00;99.90;;;;;;5063610;28;20433;-70
2021/07/20 07:52:49;;;;;;;2.83;2.27;;;19.90;99.90;;;;;;5084498;28;20429;-69
2021/07/20 07:55:22;;;;;;;3.30;2.17;;;19.80;99.90;;;;;;5082023;28;20416;-70
2021/07/20 07:57:51;;;;;;;4.10;2.10;;;19.90;99.90;;;;;;5081721;28;20494;-69
2021/07/20 08:00:20;;;;;;;3.17;1.70;;;20.00;99.90;;;;;;5064498;28;20454;-70
2021/07/20 08:02:51;;;;;;;3.30;3.00;;;20.30;99.90;;;;;;5072554;28;20442;-69
2021/07/20 08:05:23;;;;;;;3.43;2.60;;;20.50;99.90;;;;;;5082339;28;20754;-68
2021/07/20 08:07:54;;;;;;;3.13;2.30;;;20.60;99.90;;;;;;5057665;28;20820;-69
2021/07/20 08:10:24;;;;;;;3.70;2.57;;;20.40;99.90;;;;;;5057435;28;20490;-69
2021/07/20 08:12:57;;;;;;;2.70;2.20;;;20.30;99.90;;;;;;5074495;28;20442;-69
2021/07/20 08:15:26;;;;;;;3.90;3.10;;;20.40;99.90;;;;;;5073948;28;20416;-70
2021/07/20 08:17:56;;;;;;;4.73;3.10;;;20.50;99.90;;;;;;5075027;28;20446;-69
2021/07/20 08:20:27;;;;;;;5.97;3.10;;;20.80;99.90;;;;;;5074915;28;20525;-70
2021/07/20 08:22:57;;;;;;;4.00;2.53;;;21.30;99.90;;;;;;5074785;28;20404;-69
2021/07/20 08:25:30;;;;;;;3.60;2.30;;;21.40;99.90;;;;;;5074892;28;20904;-68
2021/07/20 08:28:06;;;;;;;4.67;2.60;;;21.60;99.90;;;;;;5071699;28;20470;-69
2021/07/20 08:30:38;;;;;;;6.67;3.57;;;21.90;99.90;;;;;;5073637;28;20529;-69
2021/07/20 08:33:17;;;;;;;4.70;2.87;;;22.20;99.90;;;;;;5074804;28;20434;-70
2021/07/20 08:35:46;;;;;;;3.90;2.70;;;21.90;99.90;;;;;;5056757;28;20913;-70
2021/07/20 08:38:21;;;;;;;5.20;3.50;;;21.80;99.90;;;;;;5074747;28;20440;-69
2021/07/20 08:41:08;;;;;;;3.50;2.50;;;21.50;99.90;;;;;;5074226;28;20424;-70
2021/07/20 08:43:58;;;;;;;3.67;2.80;;;21.00;99.90;;;;;;5073929;28;20412;-70
2021/07/20 08:46:45;;;;;;;3.50;2.43;;;20.80;99.90;;;;;;5073581;28;20450;-69
2021/07/20 08:49:28;;;;;;;4.93;2.57;;;20.60;99.90;;;;;;5075333;28;20773;-69
2021/07/20 08:52:03;;;;;;;5.20;2.97;;;20.00;99.90;;;;;;5069240;28;20431;-70
2021/07/20 08:54:54;;;;;;;2.93;1.90;;;20.00;99.90;;;;;;5036915;28;20401;-69
2021/07/20 08:57:54;;;;;;;7.33;3.30;;;19.90;99.90;;;;;;5052739;28;20449;-69
2021/07/20 09:00:35;;;;;;;3.03;2.40;;;19.90;99.90;;;;;;5042464;28;20462;-68
2021/07/20 09:03:36;;;;;;;2.77;2.53;;;20.00;99.90;;;;;;5069682;28;20450;-69
2021/07/20 09:06:20;;;;;;;3.97;2.90;;;20.10;99.90;;;;;;5054008;28;20914;-69
2021/07/20 09:09:18;;;;;;;4.03;2.23;;;20.20;99.90;;;;;;5068588;28;20485;-69
2021/07/20 09:12:25;;;;;;;3.80;3.00;;;20.50;99.90;;;;;;5051853;28;20509;-69
2021/07/20 09:15:09;;;;;;;3.80;2.73;;;21.20;99.90;;;;;;5036432;28;20418;-69
2021/07/20 09:18:03;;;;;;;3.60;3.20;;;21.50;99.90;;;;;;5034949;28;20992;-69
2021/07/20 09:21:04;;;;;;;3.00;2.67;;;21.80;99.90;;;;;;5035669;28;20521;-69
2021/07/20 09:23:57;;;;;;;4.17;2.77;;;22.10;99.90;;;;;;5040049;28;20423;-70
2021/07/20 09:27:10;;;;;;;2.43;1.83;;;21.70;99.90;;;;;;5036493;28;20410;-70
2021/07/20 09:30:03;;;;;;;3.63;2.70;;;21.80;99.90;;;;;;5035660;28;20784;-70
2021/07/20 09:32:48;;;;;;;3.03;2.73;;;22.30;99.90;;;;;;5035462;28;20430;-70
2021/07/20 09:35:23;;;;;;;5.50;3.70;;;22.80;99.90;;;;;;5051939;28;20443;-70
2021/07/20 09:38:03;;;;;;;9.10;3.70;;;23.10;99.90;;;;;;5052366;28;20506;-71
2021/07/20 09:40:44;;;;;;;3.60;2.47;;;23.10;99.90;;;;;;5052856;28;20436;-70
2021/07/20 09:43:30;;;;;;;5.13;2.90;;;23.00;99.90;;;;;;5058345;28;20466;-70
2021/07/20 09:46:03;;;;;;;2.63;2.40;;;22.40;99.90;;;;;;5072566;28;20426;-70
2021/07/20 09:48:38;;;;;;;3.73;2.50;;;22.50;99.90;;;;;;5071615;28;20465;-70
2021/07/20 09:51:22;;;;;;;3.17;2.63;;;22.70;99.90;;;;;;5069141;28;20443;-69
2021/07/20 09:54:15;;;;;;;6.10;3.07;;;22.40;99.90;;;;;;5056188;28;20429;-69
2021/07/20 09:57:16;;;;;;;2.83;2.47;;;22.40;99.90;;;;;;5031322;28;20417;-71
2021/07/20 10:00:03;;;;;;;4.73;2.57;;;22.40;99.90;;;;;;5065577;28;20885;-69
2021/07/20 10:02:47;;;;;;;2.97;2.67;;;22.60;99.90;;;;;;5059828;28;20385;-69
2021/07/20 10:05:20;;;;;;;2.60;2.07;;;22.70;99.90;;;;;;5042566;28;20425;-67
2021/07/20 10:07:59;;;;;;;5.03;3.30;;;22.40;99.90;;;;;;5042904;28;20974;-69
2021/07/20 10:10:33;;;;;;;4.33;2.90;;;22.30;99.90;;;;;;5045505;28;20473;-70
2021/07/20 10:13:07;;;;;;;4.37;2.37;;;22.30;99.90;;;;;;5042742;28;20424;-70
2021/07/20 10:15:51;;;;;;;5.70;3.10;;;22.80;99.90;;;;;;5065341;28;20420;-70
2021/07/20 10:18:25;;;;;;;3.30;2.20;;;22.60;99.90;;;;;;5062391;28;20561;-71
2021/07/20 10:20:58;;;;;;;11.13;3.70;;;23.10;99.90;;;;;;5059645;28;20496;-70
2021/07/20 10:23:35;;;;;;;6.83;3.97;;;22.60;99.90;;;;;;5056397;28;20476;-69
2021/07/20 10:26:25;;;;;;;3.53;2.80;;;22.50;99.90;;;;;;5057433;28;20431;-72
2021/07/20 10:29:03;;;;;;;4.43;2.67;;;22.80;99.90;;;;;;5037657;28;20751;-71
2021/07/20 10:31:43;;;;;;;10.90;2.27;;;23.20;99.90;;;;;;5045643;28;20521;-68
2021/07/20 10:34:48;;;;;;;3.30;1.90;;;23.50;99.90;;;;;;5025540;28;20483;-81
2021/07/20 10:37:22;;;;;;;3.90;3.17;;;23.10;99.90;;;;;;5017755;28;20440;-82
2021/07/20 10:39:59;;;;;;;3.90;3.20;;;22.00;99.90;;;;;;5024357;28;20425;-79
2021/07/20 10:42:35;;;;;;;4.63;3.43;;;21.40;99.90;;;;;;5020940;28;20513;-80
2021/07/20 10:45:07;;;;;;;4.07;2.90;;;21.10;99.90;;;;;;5027777;28;20429;-80
2021/07/20 10:47:44;;;;;;;3.10;2.57;;;20.70;99.90;;;;;;5022152;28;20418;-81
2021/07/20 10:50:19;;;;;;;4.43;3.13;;;20.60;99.90;;;;;;5024280;28;20486;-81
2021/07/20 10:52:59;;;;;;;5.30;3.83;;;20.60;99.90;;;;;;5029552;28;20455;-80
2021/07/20 10:55:36;;;;;;;4.63;2.63;;;20.90;99.90;;;;;;5049668;28;20428;-79
2021/07/20 10:58:14;;;;;;;6.33;3.93;;;20.60;99.90;;;;;;5023133;28;20525;-81
2021/07/20 11:00:51;;;;;;;3.90;2.60;;;20.50;99.90;;;;;;5019854;28;20753;-82
2021/07/20 11:03:32;;;;;;;6.70;2.73;;;20.50;99.90;;;;;;5022166;28;20398;-81
2021/07/20 11:06:04;;;;;;;4.83;2.97;;;20.70;99.90;;;;;;5006386;28;20442;-81
2021/07/20 11:08:44;;;;;;;7.10;3.60;;;21.20;99.90;;;;;;5021748;28;20433;-81
2021/07/20 11:11:19;;;;;;;3.27;2.27;;;21.60;99.90;;;;;;5021596;28;20452;-83
2021/07/20 11:13:51;;;;;;;2.50;2.30;;;21.60;99.90;;;;;;5020628;28;20409;-83
2021/07/20 11:16:21;;;;;;;8.90;2.87;;;21.70;99.90;;;;;;5019053;28;20468;-81
2021/07/20 11:18:54;;;;;;;5.43;2.37;;;21.70;99.90;;;;;;5021374;28;20457;-80
2021/07/20 11:21:25;;;;;;;2.63;2.43;;;21.90;99.90;;;;;;5021342;28;20556;-81
2021/07/20 11:23:57;;;;;;;3.73;2.90;;;22.10;99.90;;;;;;5021927;28;20459;-81
2021/07/20 11:26:28;;;;;;;4.97;2.80;;;22.30;99.90;;;;;;5021138;28;20413;-81
2021/07/20 11:28:57;;;;;;;4.70;2.40;;;22.60;99.90;;;;;;5022237;28;20407;-80
2021/07/20 11:31:32;;;;;;;4.80;3.27;;;23.00;99.90;;;;;;5033885;28;20418;-81
2021/07/20 11:34:08;;;;;;;2.93;2.63;;;22.90;99.90;;;;;;5046547;28;20466;-81
2021/07/20 11:36:41;;;;;;;4.50;3.07;;;22.60;99.90;;;;;;5046341;28;20435;-78
2021/07/20 11:39:18;;;;;;;3.73;2.50;;;22.80;99.90;;;;;;5047173;28;20427;-82
2021/07/20 11:41:55;;;;;;;3.10;2.53;;;23.60;99.90;;;;;;5040603;28;20758;-82
2021/07/20 11:44:36;;;;;;;6.60;2.10;;;24.10;99.90;;;;;;5041530;28;20470;-81
2021/07/20 11:47:09;;;;;;;4.53;2.50;;;24.20;99.90;;;;;;5023852;28;20438;-80
2021/07/20 11:49:45;;;;;;;5.60;2.53;;;24.00;99.90;;;;;;5024396;28;20515;-80
2021/07/20 11:52:19;;;;;;;2.40;2.20;;;23.30;99.90;;;;;;5042762;28;20471;-80
2021/07/20 11:55:00;;;;;;;6.40;3.87;;;22.50;99.90;;;;;;5024657;28;20432;-81
2021/07/20 11:58:07;;;;;;;3.27;2.97;;;22.10;99.90;;;;;;5047195;28;20408;-80
2021/07/20 12:01:15;;;;;;;4.30;3.37;;;22.20;99.90;;;;;;5046701;28;20468;-81
2021/07/20 12:03:57;;;;;;;3.20;2.90;;;22.30;99.90;;;;;;5054600;28;20392;-80
2021/07/20 12:06:52;;;;;;;4.50;3.10;;;22.00;99.90;;;;;;5054594;28;20378;-79
2021/07/20 12:09:41;;;;;;;2.80;2.40;;;21.60;99.90;;;;;;5052135;28;20511;-78
2021/07/20 12:12:49;;;;;;;3.03;2.73;;;21.00;99.90;;;;;;5054595;28;20423;-81
2021/07/20 12:15:20;;;;;;;2.80;2.60;;;20.80;99.90;;;;;;5052808;28;20448;-80
2021/07/20 12:17:50;;;;;;;5.50;3.83;;;20.70;99.90;;;;;;5051505;28;20474;-81
2021/07/20 12:20:21;;;;;;;3.23;3.03;;;20.40;99.90;;;;;;5044373;28;20423;-81
2021/07/20 12:22:53;;;;;;;3.10;2.67;;;20.00;99.90;;;;;;5020599;28;20534;-81
2021/07/20 12:25:22;;;;;;;2.80;2.50;;;20.00;99.90;;;;;;5036029;28;20398;-82
2021/07/20 12:27:53;;;;;;;4.50;2.80;;;20.20;99.90;;;;;;5041464;28;20409;-81
2021/07/20 12:30:25;;;;;;;3.30;3.00;;;20.50;99.90;;;;;;5022827;28;20436;-83
2021/07/20 12:32:55;;;;;;;3.13;2.50;;;20.80;99.90;;;;;;5039409;28;20524;-83
2021/07/20 12:35:26;;;;;;;4.07;2.70;;;21.00;99.90;;;;;;5023298;28;20713;-83
2021/07/20 12:38:04;;;;;;;3.53;2.93;;;21.00;99.90;;;;;;5040896;28;20420;-82
2021/07/20 12:40:34;;;;;;;3.10;2.77;;;21.10;99.90;;;;;;5039528;28;20433;-83
2021/07/20 12:43:13;;;;;;;3.40;3.10;;;21.30;99.90;;;;;;5022660;28;20403;-82
2021/07/20 12:45:44;;;;;;;3.00;2.70;;;21.30;99.90;;;;;;5022732;28;20413;-82
2021/07/20 12:48:23;;;;;;;4.20;2.77;;;21.20;99.90;;;;;;5043144;28;20386;-84
2021/07/20 12:51:01;;;;;;;5.73;3.50;;;21.20;99.90;;;;;;5041410;28;20394;-81
2021/07/20 12:53:39;;;;;;;3.50;2.90;;;21.20;99.90;;;;;;5024150;28;20466;-79
2021/07/20 12:56:10;;;;;;;3.23;2.93;;;21.30;99.90;;;;;;5021630;28;20428;-77
2021/07/20 12:58:38;;;;;;;3.80;3.13;;;21.30;99.90;;;;;;5039778;28;20410;-81
2021/07/20 13:01:16;;;;;;;4.67;4.03;;;21.30;99.90;;;;;;5020004;28;20439;-81
2021/07/20 13:03:46;;;;;;;6.30;3.63;;;21.70;99.90;;;;;;5019821;28;20427;-80
2021/07/20 13:06:30;;;;;;;4.37;2.97;;;21.90;99.90;;;;;;5023644;28;20916;-82
2021/07/20 13:09:24;;;;;;;3.70;3.20;;;22.20;99.90;;;;;;5023851;28;20466;-81
2021/07/20 13:12:02;;;;;;;6.27;4.50;;;22.30;99.90;;;;;;5019999;28;20835;-80
2021/07/20 13:14:33;;;;;;;5.13;3.70;;;22.70;99.90;;;;;;5019042;28;20428;-80
2021/07/20 13:17:03;;;;;;;8.40;4.00;;;22.50;99.90;;;;;;5019916;28;20464;-82
2021/07/20 13:19:47;;;;;;;4.03;3.63;;;22.40;99.90;;;;;;5020709;28;21030;-82
2021/07/20 13:22:23;;;;;;;4.93;3.50;;;22.30;99.90;;;;;;5020211;28;20464;-82
2021/07/20 13:25:01;;;;;;;3.90;3.13;;;22.30;99.90;;;;;;5023647;28;20530;-83
2021/07/20 13:27:45;;;;;;;6.40;4.07;;;22.40;99.90;;;;;;5032711;28;20925;-79
2021/07/20 13:30:26;;;;;;;5.73;3.60;;;22.30;99.90;;;;;;5040912;28;20460;-82
2021/07/20 13:33:08;;;;;;;3.60;3.30;;;22.10;99.90;;;;;;5031490;28;20456;-82